Time;durP1;ratioP1;P1;durP2;ratioP2;P2;SDS_P1;SDS_P2;PMS_P1;PMS_P2;Temp;Humidity;BMP_temperature;BMP_pressure;BME280_temperature;BME280_humidity;BME280_pressure;Samples;Min_cycle;Max_cycle;Signal;HPM_P1;HPM_P2
2024/03/08 00:02:15;;;;;;;13.17;8.87;;;;;;;;;;6316772;28;20028;-73
2024/03/08 00:05:15;;;;;;;14.37;7.93;;;;;;;;;;6317786;28;20031;-74
2024/03/08 00:08:15;;;;;;;14.83;8.67;;;;;;;;;;6321092;28;20020;-74
2024/03/08 00:11:15;;;;;;;12.73;8.07;;;;;;;;;;6321720;28;20039;-74
2024/03/08 00:14:16;;;;;;;14.40;8.20;;;;;;;;;;6323272;28;20023;-73
2024/03/08 00:17:16;;;;;;;13.93;8.60;;;;;;;;;;6321628;28;20033;-74
2024/03/08 00:20:19;;;;;;;13.13;8.57;;;;;;;;;;6321377;28;20457;-74
2024/03/08 00:23:19;;;;;;;14.27;8.52;;;;;;;;;;6321487;28;20037;-74
2024/03/08 00:26:21;;;;;;;14.43;8.50;;;;;;;;;;6322556;28;20524;-74
2024/03/08 00:29:22;;;;;;;12.65;9.15;;;;;;;;;;6323163;28;20020;-74
2024/03/08 00:32:24;;;;;;;13.53;8.30;;;;;;;;;;6321559;28;20028;-74
2024/03/08 00:35:25;;;;;;;13.32;8.35;;;;;;;;;;6320109;28;20020;-74
2024/03/08 00:38:25;;;;;;;15.63;9.27;;;;;;;;;;6311280;28;20089;-74
2024/03/08 00:41:26;;;;;;;14.17;9.37;;;;;;;;;;6321864;28;20142;-74
2024/03/08 00:44:26;;;;;;;14.38;8.93;;;;;;;;;;6322715;28;20119;-74
2024/03/08 00:47:27;;;;;;;12.97;8.80;;;;;;;;;;6319044;28;20119;-74
2024/03/08 00:50:27;;;;;;;11.57;7.87;;;;;;;;;;6317922;28;20036;-74
2024/03/08 00:53:27;;;;;;;12.17;8.20;;;;;;;;;;6320113;28;20127;-74
2024/03/08 00:56:27;;;;;;;13.30;8.83;;;;;;;;;;6322046;28;20055;-74
2024/03/08 00:59:28;;;;;;;14.37;8.77;;;;;;;;;;6321174;28;20020;-74
2024/03/08 01:02:29;;;;;;;13.70;8.20;;;;;;;;;;6320046;28;20032;-74
2024/03/08 01:05:29;;;;;;;13.20;8.20;;;;;;;;;;6319952;28;20060;-74
2024/03/08 01:08:29;;;;;;;13.37;8.67;;;;;;;;;;6318002;28;20058;-74
2024/03/08 01:11:30;;;;;;;14.33;8.60;;;;;;;;;;6320675;28;20122;-74
2024/03/08 01:14:30;;;;;;;13.83;8.77;;;;;;;;;;6322422;28;20024;-74
2024/03/08 01:17:31;;;;;;;14.70;8.88;;;;;;;;;;6321491;28;20035;-74
2024/03/08 01:20:31;;;;;;;13.60;8.50;;;;;;;;;;6317623;28;20058;-74
2024/03/08 01:23:31;;;;;;;14.40;8.50;;;;;;;;;;6300153;28;20352;-74
2024/03/08 01:26:32;;;;;;;17.17;8.73;;;;;;;;;;6319903;28;20557;-74
2024/03/08 01:29:32;;;;;;;14.87;8.10;;;;;;;;;;6302269;28;20428;-74
2024/03/08 01:32:33;;;;;;;13.53;8.00;;;;;;;;;;6320301;28;20028;-74
2024/03/08 01:35:34;;;;;;;13.32;8.20;;;;;;;;;;6320230;28;20199;-74
2024/03/08 01:38:35;;;;;;;13.55;8.55;;;;;;;;;;6318564;28;20062;-74
2024/03/08 01:41:36;;;;;;;;;;;;;;;;;;6303344;28;20028;-74
2024/03/08 01:44:36;;;;;;;11.25;6.80;;;;;;;;;;6300999;28;20414;-74
2024/03/08 01:47:37;;;;;;;12.40;7.97;;;;;;;;;;6321988;28;20062;-74
2024/03/08 01:50:38;;;;;;;12.07;8.10;;;;;;;;;;6319833;28;20035;-74
2024/03/08 01:53:39;;;;;;;10.93;7.63;;;;;;;;;;6319084;28;20119;-74
2024/03/08 01:56:40;;;;;;;15.13;7.95;;;;;;;;;;6320443;28;20020;-74
2024/03/08 01:59:41;;;;;;;10.80;8.27;;;;;;;;;;6315506;28;20036;-74
2024/03/08 02:02:42;;;;;;;11.80;7.88;;;;;;;;;;6301408;28;20289;-74
2024/03/08 02:05:43;;;;;;;11.80;8.40;;;;;;;;;;6314273;28;20032;-74
2024/03/08 02:08:44;;;;;;;12.38;8.57;;;;;;;;;;6321148;28;20469;-74
2024/03/08 02:11:44;;;;;;;;;;;;;;;;;;6319578;28;20024;-74
2024/03/08 02:14:45;;;;;;;10.35;6.45;;;;;;;;;;6319332;28;19908;-73
2024/03/08 02:17:45;;;;;;;10.47;7.10;;;;;;;;;;6318369;28;20990;-74
2024/03/08 02:20:54;;;;;;;11.87;7.90;;;;;;;;;;6318778;28;20027;-74
2024/03/08 02:23:55;;;;;;;12.55;7.38;;;;;;;;;;6319275;28;20397;-74
2024/03/08 02:26:56;;;;;;;11.37;8.13;;;;;;;;;;6320264;28;20135;-74
2024/03/08 02:29:57;;;;;;;15.10;8.95;;;;;;;;;;6309129;28;20030;-75
2024/03/08 02:32:57;;;;;;;12.13;8.77;;;;;;;;;;6312761;28;20028;-74
2024/03/08 02:35:58;;;;;;;12.83;8.33;;;;;;;;;;6294352;28;20203;-74
2024/03/08 02:38:58;;;;;;;13.27;8.03;;;;;;;;;;6319326;28;20063;-74
2024/03/08 02:41:58;;;;;;;12.67;8.40;;;;;;;;;;6301569;28;20071;-74
2024/03/08 02:44:58;;;;;;;13.13;8.20;;;;;;;;;;6320644;28;20070;-74
2024/03/08 02:47:59;;;;;;;14.67;8.17;;;;;;;;;;6319375;28;20020;-74
2024/03/08 02:50:59;;;;;;;14.60;8.87;;;;;;;;;;6316990;28;20024;-74
2024/03/08 02:53:59;;;;;;;13.10;8.37;;;;;;;;;;6317613;28;20027;-74
2024/03/08 02:56:59;;;;;;;13.80;8.53;;;;;;;;;;6322522;28;20024;-74
2024/03/08 03:00:00;;;;;;;12.97;7.53;;;;;;;;;;6321123;28;20012;-74
2024/03/08 03:03:02;;;;;;;12.03;8.23;;;;;;;;;;6313906;28;20035;-74
2024/03/08 03:06:03;;;;;;;14.02;9.30;;;;;;;;;;6315298;28;20039;-74
2024/03/08 03:09:06;;;;;;;12.07;8.27;;;;;;;;;;6297202;28;20224;-73
2024/03/08 03:12:08;;;;;;;14.20;8.93;;;;;;;;;;6319837;28;20042;-74
2024/03/08 03:15:10;;;;;;;13.13;8.75;;;;;;;;;;6321213;28;20100;-74
2024/03/08 03:18:11;;;;;;;;;;;;;;;;;;6321743;28;20028;-74
2024/03/08 03:21:12;;;;;;;9.93;6.40;;;;;;;;;;6310213;28;20018;-74
2024/03/08 03:24:16;;;;;;;13.27;7.50;;;;;;;;;;6315565;28;20027;-74
2024/03/08 03:27:16;;;;;;;14.00;8.77;;;;;;;;;;6315186;28;20449;-75
2024/03/08 03:30:22;;;;;;;11.63;8.23;;;;;;;;;;6319536;28;20031;-74
2024/03/08 03:33:22;;;;;;;13.05;8.65;;;;;;;;;;6313854;28;20023;-75
2024/03/08 03:36:24;;;;;;;15.37;9.27;;;;;;;;;;6317957;28;20020;-74
2024/03/08 03:39:25;;;;;;;11.20;8.00;;;;;;;;;;6300962;28;20032;-74
2024/03/08 03:42:26;;;;;;;13.13;8.37;;;;;;;;;;6320945;28;20026;-74
2024/03/08 03:45:27;;;;;;;12.57;8.13;;;;;;;;;;6323096;28;20582;-74
2024/03/08 03:48:27;;;;;;;12.37;8.00;;;;;;;;;;6322089;28;20016;-74
2024/03/08 03:51:29;;;;;;;12.93;8.13;;;;;;;;;;6317593;28;20073;-74
2024/03/08 03:54:30;;;;;;;13.35;8.93;;;;;;;;;;6322915;28;20099;-74
2024/03/08 03:57:31;;;;;;;14.07;8.90;;;;;;;;;;6319430;28;20362;-74
2024/03/08 04:00:32;;;;;;;13.20;8.63;;;;;;;;;;6304363;28;20069;-74
2024/03/08 04:03:32;;;;;;;12.43;8.23;;;;;;;;;;6307385;28;20032;-74
2024/03/08 04:06:32;;;;;;;14.50;8.43;;;;;;;;;;6322808;28;20031;-74
2024/03/08 04:09:34;;;;;;;11.97;8.03;;;;;;;;;;6324679;28;20024;-73
2024/03/08 04:12:35;;;;;;;12.30;8.10;;;;;;;;;;6321530;28;20119;-74
2024/03/08 04:15:35;;;;;;;11.63;8.73;;;;;;;;;;6323476;28;20016;-74
2024/03/08 04:18:35;;;;;;;14.40;8.70;;;;;;;;;;6324473;28;20516;-74
2024/03/08 04:21:35;;;;;;;13.13;8.03;;;;;;;;;;6317356;28;20472;-74
2024/03/08 04:24:36;;;;;;;12.07;8.17;;;;;;;;;;6322924;28;20036;-75
2024/03/08 04:27:36;;;;;;;12.00;8.43;;;;;;;;;;6325047;28;20020;-73
2024/03/08 04:30:37;;;;;;;13.43;8.10;;;;;;;;;;6323413;28;20020;-74
2024/03/08 04:33:38;;;;;;;14.55;8.98;;;;;;;;;;6321597;28;20032;-74
2024/03/08 04:36:39;;;;;;;12.15;8.48;;;;;;;;;;6320039;28;20031;-74
2024/03/08 04:39:39;;;;;;;12.13;7.83;;;;;;;;;;6321978;28;20095;-74
2024/03/08 04:42:40;;;;;;;12.97;8.10;;;;;;;;;;6324139;28;20071;-74
2024/03/08 04:45:43;;;;;;;14.10;8.57;;;;;;;;;;6304900;28;20082;-74
2024/03/08 04:48:43;;;;;;;14.82;8.10;;;;;;;;;;6320855;28;20028;-74
2024/03/08 04:51:44;;;;;;;14.37;8.53;;;;;;;;;;6318978;28;20094;-74
2024/03/08 04:54:45;;;;;;;14.35;8.48;;;;;;;;;;6321282;28;20070;-74
2024/03/08 04:57:46;;;;;;;15.33;9.33;;;;;;;;;;6324609;28;20089;-74
2024/03/08 05:00:46;;;;;;;12.90;8.55;;;;;;;;;;6321511;28;20127;-74
2024/03/08 05:03:49;;;;;;;13.00;8.80;;;;;;;;;;6322906;28;20046;-74
2024/03/08 05:06:50;;;;;;;12.13;8.60;;;;;;;;;;6319410;28;20028;-74
2024/03/08 05:09:51;;;;;;;14.07;8.60;;;;;;;;;;6321997;28;20047;-74
2024/03/08 05:12:51;;;;;;;13.95;8.30;;;;;;;;;;6302087;28;20057;-74
2024/03/08 05:15:52;;;;;;;16.17;9.50;;;;;;;;;;6320396;28;20028;-74
2024/03/08 05:18:52;;;;;;;14.40;8.23;;;;;;;;;;6321066;28;20043;-74
2024/03/08 05:21:52;;;;;;;14.53;8.53;;;;;;;;;;6314424;28;20111;-75
2024/03/08 05:24:53;;;;;;;13.97;8.50;;;;;;;;;;6318999;28;20064;-75
2024/03/08 05:27:53;;;;;;;12.37;7.90;;;;;;;;;;6321591;28;20465;-75
2024/03/08 05:30:56;;;;;;;10.27;7.30;;;;;;;;;;6321072;28;20488;-75
2024/03/08 05:33:56;;;;;;;15.05;8.82;;;;;;;;;;6320213;28;20024;-75
2024/03/08 05:36:58;;;;;;;14.37;8.63;;;;;;;;;;6316158;28;20028;-75
2024/03/08 05:39:58;;;;;;;13.52;8.40;;;;;;;;;;6317244;28;20133;-74
2024/03/08 05:42:59;;;;;;;12.60;8.30;;;;;;;;;;6320571;28;20032;-74
2024/03/08 05:45:59;;;;;;;13.98;8.32;;;;;;;;;;6321674;28;20107;-75
2024/03/08 05:48:59;;;;;;;14.23;8.60;;;;;;;;;;6321581;28;20043;-75
2024/03/08 05:52:00;;;;;;;13.23;8.20;;;;;;;;;;6313030;28;20111;-75
2024/03/08 05:55:00;;;;;;;14.83;8.47;;;;;;;;;;6321317;28;20028;-75
2024/03/08 05:58:01;;;;;;;14.10;9.07;;;;;;;;;;6319979;28;20074;-75
2024/03/08 06:01:01;;;;;;;13.57;8.52;;;;;;;;;;6320587;28;20146;-75
2024/03/08 06:04:02;;;;;;;13.73;8.87;;;;;;;;;;6312691;28;20028;-76
2024/03/08 06:07:03;;;;;;;14.13;9.02;;;;;;;;;;6320113;28;20081;-76
2024/03/08 06:10:03;;;;;;;13.07;8.77;;;;;;;;;;6318397;28;20031;-75
2024/03/08 06:13:03;;;;;;;12.07;7.80;;;;;;;;;;6315699;28;20032;-75
2024/03/08 06:16:04;;;;;;;11.60;7.97;;;;;;;;;;6315200;28;20377;-76
2024/03/08 06:19:05;;;;;;;14.83;8.93;;;;;;;;;;6317959;28;20024;-76
2024/03/08 06:22:06;;;;;;;15.02;8.60;;;;;;;;;;6306506;28;20063;-76
2024/03/08 06:25:07;;;;;;;13.60;9.10;;;;;;;;;;6301843;28;20045;-75
2024/03/08 06:28:07;;;;;;;14.00;8.88;;;;;;;;;;6309848;28;20028;-75
2024/03/08 06:31:07;;;;;;;15.73;9.07;;;;;;;;;;6320832;28;20028;-75
2024/03/08 06:34:08;;;;;;;14.30;8.73;;;;;;;;;;6319097;28;20032;-76
2024/03/08 06:37:08;;;;;;;14.37;8.57;;;;;;;;;;6318435;28;20449;-75
2024/03/08 06:40:13;;;;;;;14.07;8.90;;;;;;;;;;6319757;28;20089;-76
2024/03/08 06:43:18;;;;;;;13.57;8.65;;;;;;;;;;6318384;28;20032;-76
2024/03/08 06:46:20;;;;;;;12.10;8.43;;;;;;;;;;6316213;28;20038;-76
2024/03/08 06:49:20;;;;;;;12.43;8.52;;;;;;;;;;6316844;28;20028;-76
2024/03/08 06:52:21;;;;;;;14.27;8.80;;;;;;;;;;6318349;28;20447;-76
2024/03/08 06:55:22;;;;;;;10.88;7.72;;;;;;;;;;6307508;28;20369;-75
2024/03/08 06:58:22;;;;;;;12.67;8.43;;;;;;;;;;6310990;28;20032;-78
2024/03/08 07:01:22;;;;;;;15.20;8.70;;;;;;;;;;6317921;28;20024;-78
2024/03/08 07:04:26;;;;;;;14.13;8.40;;;;;;;;;;6316540;28;20464;-83
2024/03/08 07:07:26;;;;;;;13.30;8.52;;;;;;;;;;6317615;28;20012;-79
2024/03/08 07:10:28;;;;;;;12.17;8.83;;;;;;;;;;6318689;28;20027;-79
2024/03/08 07:13:29;;;;;;;13.63;8.82;;;;;;;;;;6297080;28;20030;-77
2024/03/08 07:16:29;;;;;;;16.02;9.10;;;;;;;;;;6317389;28;20024;-77
2024/03/08 07:19:30;;;;;;;13.77;9.23;;;;;;;;;;6324098;28;20488;-78
2024/03/08 07:22:31;;;;;;;13.00;8.03;;;;;;;;;;6322620;28;20472;-77
2024/03/08 07:25:31;;;;;;;13.60;8.13;;;;;;;;;;6299400;28;20056;-77
2024/03/08 07:28:32;;;;;;;10.93;8.33;;;;;;;;;;6313314;28;20101;-77
2024/03/08 07:31:45;;;;;;;14.93;8.80;;;;;;;;;;6315386;28;20047;-77
2024/03/08 07:34:45;;;;;;;11.88;8.18;;;;;;;;;;6312545;28;20074;-77
2024/03/08 07:37:45;;;;;;;13.20;8.23;;;;;;;;;;6321284;28;20392;-77
2024/03/08 07:40:46;;;;;;;14.07;8.63;;;;;;;;;;6321089;28;20024;-78
2024/03/08 07:43:46;;;;;;;10.37;6.73;;;;;;;;;;6327280;28;20086;-76
2024/03/08 07:46:46;;;;;;;13.27;7.97;;;;;;;;;;6326532;28;20266;-76
2024/03/08 07:49:47;;;;;;;11.43;7.57;;;;;;;;;;6320734;28;20044;-77
2024/03/08 07:52:48;;;;;;;13.63;8.00;;;;;;;;;;6301337;28;20388;-76
2024/03/08 07:55:48;;;;;;;12.48;8.18;;;;;;;;;;6312920;28;20425;-77
2024/03/08 07:58:48;;;;;;;12.30;7.93;;;;;;;;;;6315028;28;20064;-77
2024/03/08 08:01:49;;;;;;;15.13;8.33;;;;;;;;;;6320983;28;20032;-77
2024/03/08 08:04:49;;;;;;;12.80;7.93;;;;;;;;;;6312152;28;20050;-77
2024/03/08 08:07:50;;;;;;;13.37;8.40;;;;;;;;;;6318690;28;20050;-77
2024/03/08 08:10:50;;;;;;;11.95;8.07;;;;;;;;;;6314533;28;20428;-77
2024/03/08 08:13:50;;;;;;;13.60;8.97;;;;;;;;;;6322126;28;20035;-78
2024/03/08 08:16:52;;;;;;;14.97;8.40;;;;;;;;;;6318474;28;20024;-77
2024/03/08 08:19:52;;;;;;;13.65;8.85;;;;;;;;;;6322784;28;20030;-77
2024/03/08 08:22:55;;;;;;;16.13;8.67;;;;;;;;;;6320733;28;20032;-77
2024/03/08 08:25:55;;;;;;;13.77;8.88;;;;;;;;;;6319901;28;20146;-76
2024/03/08 08:28:55;;;;;;;14.00;8.63;;;;;;;;;;6312282;28;20479;-77
2024/03/08 08:31:59;;;;;;;13.33;8.53;;;;;;;;;;6304332;28;20075;-78
2024/03/08 08:34:59;;;;;;;15.07;8.63;;;;;;;;;;6314364;28;20028;-77
2024/03/08 08:37:59;;;;;;;14.20;8.87;;;;;;;;;;6313734;28;21176;-77
2024/03/08 08:41:02;;;;;;;15.03;8.70;;;;;;;;;;6320734;28;20024;-77
2024/03/08 08:44:02;;;;;;;13.07;7.88;;;;;;;;;;6322267;28;20077;-78
2024/03/08 08:47:03;;;;;;;14.73;8.77;;;;;;;;;;6322937;28;20354;-76
2024/03/08 08:50:07;;;;;;;13.65;8.45;;;;;;;;;;6321137;28;20015;-77
2024/03/08 08:53:08;;;;;;;16.08;8.75;;;;;;;;;;6319930;28;20460;-77
2024/03/08 08:56:12;;;;;;;16.17;9.05;;;;;;;;;;6321507;28;20104;-77
2024/03/08 08:59:19;;;;;;;16.42;9.35;;;;;;;;;;6323541;28;20035;-77
2024/03/08 09:02:20;;;;;;;14.93;8.40;;;;;;;;;;6320112;28;20077;-78
2024/03/08 09:05:21;;;;;;;14.85;8.73;;;;;;;;;;6318853;28;20024;-78
2024/03/08 09:08:21;;;;;;;16.03;8.33;;;;;;;;;;6315099;28;20085;-79
2024/03/08 09:11:22;;;;;;;13.77;8.33;;;;;;;;;;6300176;28;20016;-79
2024/03/08 09:14:22;;;;;;;19.87;9.07;;;;;;;;;;6320529;28;20093;-79
2024/03/08 09:17:22;;;;;;;16.57;8.40;;;;;;;;;;6319958;28;20102;-78
2024/03/08 09:20:22;;;;;;;14.13;8.67;;;;;;;;;;6321433;28;20040;-79
2024/03/08 09:23:23;;;;;;;12.80;7.73;;;;;;;;;;6302190;28;20119;-80
2024/03/08 09:26:24;;;;;;;11.93;7.57;;;;;;;;;;6320446;28;20484;-79
2024/03/08 09:29:24;;;;;;;11.60;7.00;;;;;;;;;;6322394;28;20066;-79
2024/03/08 09:32:24;;;;;;;15.47;7.63;;;;;;;;;;6321711;28;20024;-79
2024/03/08 09:35:25;;;;;;;13.40;7.50;;;;;;;;;;6318602;28;20372;-79
2024/03/08 09:38:25;;;;;;;11.57;7.00;;;;;;;;;;6321964;28;20020;-79
2024/03/08 09:41:25;;;;;;;10.67;6.77;;;;;;;;;;6313793;28;20031;-79
2024/03/08 09:44:25;;;;;;;14.27;7.30;;;;;;;;;;6317462;28;20016;-79
2024/03/08 09:47:33;;;;;;;11.07;7.00;;;;;;;;;;6297375;28;20024;-79
2024/03/08 09:50:34;;;;;;;13.60;6.85;;;;;;;;;;6317796;28;20106;-78
2024/03/08 09:53:35;;;;;;;11.77;6.50;;;;;;;;;;6309617;28;20095;-79
2024/03/08 09:56:36;;;;;;;12.23;6.50;;;;;;;;;;6305174;28;20469;-78
2024/03/08 10:02:36;;;;;;;12.77;6.70;;;;;;;;;;6298136;28;20029;-79
2024/03/08 10:05:36;;;;;;;13.23;7.07;;;;;;;;;;6305804;28;20032;-79
2024/03/08 10:08:37;;;;;;;11.07;6.53;;;;;;;;;;6321629;28;20397;-79
2024/03/08 10:11:37;;;;;;;9.77;5.77;;;;;;;;;;6321338;28;20130;-79
2024/03/08 10:14:39;;;;;;;9.77;6.22;;;;;;;;;;6322549;28;20069;-78
2024/03/08 10:17:39;;;;;;;11.32;6.05;;;;;;;;;;6294977;28;20040;-79
2024/03/08 10:20:40;;;;;;;12.83;7.23;;;;;;;;;;6313482;28;20098;-78
2024/03/08 10:23:43;;;;;;;11.83;6.77;;;;;;;;;;6312581;28;20024;-79
2024/03/08 10:26:44;;;;;;;13.75;6.78;;;;;;;;;;6320963;28;20051;-79
2024/03/08 10:29:51;;;;;;;13.30;7.32;;;;;;;;;;6303417;28;20392;-79
2024/03/08 10:32:52;;;;;;;12.20;6.18;;;;;;;;;;6315473;28;20539;-78
2024/03/08 10:35:52;;;;;;;12.00;6.13;;;;;;;;;;6317399;28;20040;-79
2024/03/08 10:38:53;;;;;;;9.25;5.47;;;;;;;;;;6306976;28;20024;-78
2024/03/08 10:41:57;;;;;;;10.27;5.97;;;;;;;;;;6292158;28;20126;-79
2024/03/08 10:45:08;;;;;;;8.65;5.43;;;;;;;;;;6302662;28;20026;-78
2024/03/08 10:48:08;;;;;;;11.55;5.35;;;;;;;;;;6318849;28;20088;-78
2024/03/08 10:51:11;;;;;;;13.37;6.33;;;;;;;;;;6301312;28;20024;-78
2024/03/08 10:54:11;;;;;;;10.07;5.53;;;;;;;;;;6320836;28;20020;-78
2024/03/08 10:57:12;;;;;;;9.63;5.83;;;;;;;;;;6305545;28;20042;-78
2024/03/08 11:00:13;;;;;;;8.35;5.50;;;;;;;;;;6320257;28;20087;-78
2024/03/08 11:03:32;;;;;;;8.50;5.55;;;;;;;;;;6321446;28;20511;-78
2024/03/08 11:06:36;;;;;;;9.43;5.32;;;;;;;;;;6289768;28;20021;-79
2024/03/08 11:09:38;;;;;;;8.35;4.90;;;;;;;;;;6307665;28;20024;-87
2024/03/08 11:12:39;;;;;;;8.45;5.25;;;;;;;;;;6322850;28;20024;-78
2024/03/08 11:15:39;;;;;;;7.68;4.97;;;;;;;;;;6321389;28;20028;-78
2024/03/08 11:18:39;;;;;;;6.90;4.77;;;;;;;;;;6316386;28;20028;-78
2024/03/08 11:21:43;;;;;;;7.83;4.83;;;;;;;;;;6295788;28;20020;-79
2024/03/08 11:24:45;;;;;;;5.82;4.18;;;;;;;;;;6321199;28;20415;-79
2024/03/08 11:27:53;;;;;;;8.18;4.65;;;;;;;;;;6321524;28;20028;-78
2024/03/08 11:30:59;;;;;;;6.78;4.85;;;;;;;;;;6321172;28;20537;-79
2024/03/08 11:34:00;;;;;;;7.22;4.35;;;;;;;;;;6322244;28;20038;-77
2024/03/08 11:37:00;;;;;;;7.77;4.73;;;;;;;;;;6301272;28;20442;-76
2024/03/08 11:40:02;;;;;;;6.73;4.40;;;;;;;;;;6289356;28;20043;-73
2024/03/08 11:43:06;;;;;;;6.18;4.43;;;;;;;;;;6299017;28;20032;-77
2024/03/08 11:46:08;;;;;;;8.35;4.70;;;;;;;;;;6321457;28;20049;-75
2024/03/08 11:49:08;;;;;;;;;;;;;;;;;;6318286;28;20081;-75
2024/03/08 11:52:12;;;;;;;4.37;2.90;;;;;;;;;;6317739;28;20261;-78
2024/03/08 11:55:12;;;;;;;4.65;3.13;;;;;;;;;;6315675;28;20534;-79
2024/03/08 11:58:13;;;;;;;5.57;3.30;;;;;;;;;;6315627;28;20052;-80
2024/03/08 12:01:13;;;;;;;5.23;3.37;;;;;;;;;;6320487;28;20023;-77
2024/03/08 12:04:13;;;;;;;4.80;3.20;;;;;;;;;;6324533;28;20115;-79
2024/03/08 12:07:14;;;;;;;4.17;3.20;;;;;;;;;;6320496;28;20063;-76
2024/03/08 12:10:18;;;;;;;4.17;2.87;;;;;;;;;;6312102;28;20031;-75
2024/03/08 12:13:18;;;;;;;4.22;2.90;;;;;;;;;;6323145;28;20616;-77
2024/03/08 12:16:21;;;;;;;3.37;2.80;;;;;;;;;;6322607;28;20016;-77
2024/03/08 12:19:21;;;;;;;3.95;2.97;;;;;;;;;;6322559;28;20463;-76
2024/03/08 12:22:24;;;;;;;5.00;3.27;;;;;;;;;;6319357;28;20084;-76
2024/03/08 12:25:32;;;;;;;4.95;3.35;;;;;;;;;;6321369;28;20056;-76
2024/03/08 12:28:32;;;;;;;4.53;3.50;;;;;;;;;;6322055;28;20020;-76
2024/03/08 12:31:32;;;;;;;5.27;3.63;;;;;;;;;;6323009;28;20468;-76
2024/03/08 12:34:33;;;;;;;5.03;3.67;;;;;;;;;;6300751;28;20510;-76
2024/03/08 12:37:33;;;;;;;5.27;3.93;;;;;;;;;;6317108;28;20270;-76
2024/03/08 12:40:41;;;;;;;5.65;4.13;;;;;;;;;;6303113;28;20028;-76
2024/03/08 12:43:42;;;;;;;5.38;3.90;;;;;;;;;;6324739;28;20036;-77
2024/03/08 12:46:44;;;;;;;4.70;3.90;;;;;;;;;;6322233;28;20058;-77
2024/03/08 12:49:45;;;;;;;4.28;3.05;;;;;;;;;;6323527;28;20016;-76
2024/03/08 12:52:45;;;;;;;5.67;4.13;;;;;;;;;;6321076;28;20031;-77
2024/03/08 12:55:46;;;;;;;5.57;3.70;;;;;;;;;;6322296;28;20047;-75
2024/03/08 12:58:46;;;;;;;6.23;4.23;;;;;;;;;;6324210;28;20024;-77
2024/03/08 13:01:47;;;;;;;5.93;3.53;;;;;;;;;;6322628;28;20030;-76
2024/03/08 13:04:55;;;;;;;5.70;4.00;;;;;;;;;;6322325;28;20031;-76
2024/03/08 13:07:56;;;;;;;5.40;3.85;;;;;;;;;;6320461;28;20518;-76
2024/03/08 13:10:57;;;;;;;4.35;3.42;;;;;;;;;;6321162;28;20084;-76
2024/03/08 13:13:59;;;;;;;7.00;4.10;;;;;;;;;;6317372;28;20024;-76
2024/03/08 13:16:59;;;;;;;6.45;3.88;;;;;;;;;;6321009;28;20024;-76
2024/03/08 13:20:00;;;;;;;5.07;3.57;;;;;;;;;;6321262;28;20073;-76
2024/03/08 13:23:01;;;;;;;4.73;3.83;;;;;;;;;;6317992;28;20043;-75
2024/03/08 13:26:01;;;;;;;5.28;3.70;;;;;;;;;;6296868;28;20044;-75
2024/03/08 13:29:02;;;;;;;5.13;3.33;;;;;;;;;;6321954;28;20447;-76
2024/03/08 13:32:03;;;;;;;5.00;3.67;;;;;;;;;;6320208;28;20032;-76
2024/03/08 13:35:04;;;;;;;5.03;3.27;;;;;;;;;;6320473;28;20391;-76
2024/03/08 13:38:05;;;;;;;5.25;3.60;;;;;;;;;;6312474;28;20025;-76
2024/03/08 13:41:05;;;;;;;5.68;3.83;;;;;;;;;;6319902;28;20047;-75
2024/03/08 13:44:06;;;;;;;4.23;3.20;;;;;;;;;;6321971;28;20384;-76
2024/03/08 13:47:07;;;;;;;4.55;3.05;;;;;;;;;;6320706;28;20020;-76
2024/03/08 13:50:11;;;;;;;6.20;3.67;;;;;;;;;;6320458;28;20411;-76
2024/03/08 13:53:12;;;;;;;5.68;3.65;;;;;;;;;;6319097;28;20035;-76
2024/03/08 13:56:14;;;;;;;4.33;3.10;;;;;;;;;;6295940;28;20077;-78
2024/03/08 13:59:14;;;;;;;5.07;3.45;;;;;;;;;;6322207;28;20095;-78
2024/03/08 14:02:14;;;;;;;5.00;3.37;;;;;;;;;;6316110;28;20040;-78
2024/03/08 14:05:16;;;;;;;4.23;2.90;;;;;;;;;;6320287;28;20066;-77
2024/03/08 14:08:17;;;;;;;4.20;3.28;;;;;;;;;;6318455;28;20470;-76
2024/03/08 14:11:18;;;;;;;5.35;3.40;;;;;;;;;;6319330;28;20031;-75
2024/03/08 14:14:20;;;;;;;4.60;3.42;;;;;;;;;;6317581;28;20016;-74
2024/03/08 14:17:21;;;;;;;5.03;3.60;;;;;;;;;;6320005;28;20020;-75
2024/03/08 14:20:25;;;;;;;5.53;3.40;;;;;;;;;;6317944;28;20024;-74
2024/03/08 14:23:27;;;;;;;4.20;3.10;;;;;;;;;;6319586;28;20038;-77
2024/03/08 14:26:27;;;;;;;3.97;3.38;;;;;;;;;;6317695;28;20048;-76
2024/03/08 14:29:32;;;;;;;4.60;3.20;;;;;;;;;;6317759;28;20038;-75
2024/03/08 14:32:33;;;;;;;4.47;3.13;;;;;;;;;;6319420;28;20020;-75
2024/03/08 14:35:34;;;;;;;4.37;3.10;;;;;;;;;;6316994;28;20031;-75
2024/03/08 14:38:34;;;;;;;4.28;3.17;;;;;;;;;;6318212;28;20032;-75
2024/03/08 14:41:35;;;;;;;4.93;3.67;;;;;;;;;;6319186;28;20036;-77
2024/03/08 14:44:35;;;;;;;6.03;3.93;;;;;;;;;;6318325;28;20032;-75
2024/03/08 14:47:36;;;;;;;5.20;3.63;;;;;;;;;;6320423;28;20048;-75
2024/03/08 14:50:36;;;;;;;5.03;3.30;;;;;;;;;;6320187;28;20089;-75
2024/03/08 14:53:40;;;;;;;4.43;3.27;;;;;;;;;;6318626;28;20024;-75
2024/03/08 14:56:43;;;;;;;5.57;4.00;;;;;;;;;;6318744;28;20035;-77
2024/03/08 14:59:44;;;;;;;5.10;3.90;;;;;;;;;;6321363;28;20024;-77
2024/03/08 15:02:44;;;;;;;5.05;3.83;;;;;;;;;;6314514;28;20085;-75
2024/03/08 15:05:48;;;;;;;4.83;3.60;;;;;;;;;;6318243;28;20036;-75
2024/03/08 15:08:48;;;;;;;4.78;3.75;;;;;;;;;;6318088;28;20506;-75
2024/03/08 15:11:49;;;;;;;5.97;3.97;;;;;;;;;;6319024;28;20024;-75
2024/03/08 15:14:52;;;;;;;4.35;3.40;;;;;;;;;;6315339;28;20028;-77
2024/03/08 15:17:57;;;;;;;5.35;3.72;;;;;;;;;;6319070;28;20491;-76
2024/03/08 15:20:57;;;;;;;5.53;3.75;;;;;;;;;;6316497;28;20461;-77
2024/03/08 15:23:58;;;;;;;4.85;3.63;;;;;;;;;;6319242;28;20035;-77
2024/03/08 15:27:00;;;;;;;5.67;3.97;;;;;;;;;;6322329;28;20079;-77
2024/03/08 15:30:03;;;;;;;4.50;3.47;;;;;;;;;;6320632;28;20020;-76
2024/03/08 15:33:03;;;;;;;5.60;3.85;;;;;;;;;;6305832;28;20073;-77
2024/03/08 15:36:07;;;;;;;5.63;3.80;;;;;;;;;;6318487;28;20024;-77
2024/03/08 15:39:10;;;;;;;5.13;4.03;;;;;;;;;;6312703;28;20411;-78
2024/03/08 15:42:11;;;;;;;5.03;3.72;;;;;;;;;;6322695;28;20035;-77
2024/03/08 15:45:11;;;;;;;5.57;3.72;;;;;;;;;;6316402;28;20028;-77
2024/03/08 15:48:12;;;;;;;5.83;3.97;;;;;;;;;;6321952;28;20469;-77
2024/03/08 15:51:13;;;;;;;4.35;3.55;;;;;;;;;;6323241;28;20341;-77
2024/03/08 15:54:13;;;;;;;5.00;3.47;;;;;;;;;;6322876;28;20059;-77
2024/03/08 15:57:15;;;;;;;3.93;3.37;;;;;;;;;;6325549;28;20503;-77
2024/03/08 16:00:45;;;;;;;5.88;3.65;;;;;;;;;;6323536;28;20027;-77
2024/03/08 16:03:37;;;;;;;5.25;3.25;;;;;;;;;;6322884;28;20469;-77
2024/03/08 16:06:39;;;;;;;5.10;3.73;;;;;;;;;;6322275;28;20028;-77
2024/03/08 16:09:40;;;;;;;4.65;3.45;;;;;;;;;;6316834;28;20530;-77
2024/03/08 16:12:40;;;;;;;5.37;4.00;;;;;;;;;;6306606;28;20016;-77
2024/03/08 16:15:44;;;;;;;4.17;3.40;;;;;;;;;;6311484;28;20025;-77
2024/03/08 16:18:45;;;;;;;5.18;3.58;;;;;;;;;;6319692;28;20085;-77
2024/03/08 16:21:45;;;;;;;5.28;3.85;;;;;;;;;;6305586;28;20111;-77
2024/03/08 16:24:50;;;;;;;4.73;3.93;;;;;;;;;;6319609;28;20066;-76
2024/03/08 16:27:50;;;;;;;4.70;3.40;;;;;;;;;;6316452;28;20070;-74
2024/03/08 16:30:53;;;;;;;4.23;3.33;;;;;;;;;;6318613;28;20103;-77
2024/03/08 16:33:54;;;;;;;6.13;4.18;;;;;;;;;;6319342;28;20032;-74
2024/03/08 16:36:54;;;;;;;3.83;3.30;;;;;;;;;;6318538;28;20081;-74
2024/03/08 16:39:59;;;;;;;5.20;3.53;;;;;;;;;;6309963;28;20024;-74
2024/03/08 16:43:00;;;;;;;5.47;3.78;;;;;;;;;;6323490;28;20079;-74
2024/03/08 16:46:03;;;;;;;5.87;3.63;;;;;;;;;;6316061;28;20024;-75
2024/03/08 16:49:04;;;;;;;4.97;3.90;;;;;;;;;;6319935;28;20016;-76
2024/03/08 16:52:05;;;;;;;4.68;3.78;;;;;;;;;;6318588;28;20044;-74
2024/03/08 16:55:06;;;;;;;5.15;3.58;;;;;;;;;;6321017;28;20081;-74
2024/03/08 16:58:08;;;;;;;4.87;3.43;;;;;;;;;;6320498;28;20059;-74
2024/03/08 17:01:09;;;;;;;5.35;3.85;;;;;;;;;;6319838;28;20070;-74
2024/03/08 17:04:09;;;;;;;4.87;3.40;;;;;;;;;;6317994;28;20417;-74
2024/03/08 17:07:11;;;;;;;5.10;3.60;;;;;;;;;;6302353;28;20028;-74
2024/03/08 17:10:19;;;;;;;;;;;;;;;;;;6316560;28;20064;-75
2024/03/08 17:13:19;;;;;;;3.63;2.40;;;;;;;;;;6317206;28;19916;-76
2024/03/08 17:16:24;;;;;;;5.63;3.10;;;;;;;;;;6316778;28;20043;-75
2024/03/08 17:19:26;;;;;;;5.88;3.33;;;;;;;;;;6318935;28;20123;-74
2024/03/08 17:22:28;;;;;;;4.05;3.30;;;;;;;;;;6313082;28;20047;-74
2024/03/08 17:25:28;;;;;;;5.78;3.50;;;;;;;;;;6318799;28;20060;-75
2024/03/08 17:28:30;;;;;;;6.33;3.20;;;;;;;;;;6317533;28;20118;-74
2024/03/08 17:31:32;;;;;;;5.15;3.42;;;;;;;;;;6316413;28;20035;-76
2024/03/08 17:34:32;;;;;;;4.40;3.03;;;;;;;;;;6314684;28;20488;-76
2024/03/08 17:37:32;;;;;;;5.17;3.20;;;;;;;;;;6315815;28;20032;-74
2024/03/08 17:40:32;;;;;;;3.80;3.00;;;;;;;;;;6320611;28;20498;-74
2024/03/08 17:43:34;;;;;;;3.80;2.43;;;;;;;;;;6316319;28;20426;-74
2024/03/08 17:46:34;;;;;;;;;;;;;;;;;;6313030;28;20031;-74
2024/03/08 17:49:35;;;;;;;3.03;2.20;;;;;;;;;;5956872;28;10000141;-81
2024/03/08 17:52:38;;;;;;;5.07;2.80;;;;;;;;;;6314632;28;20561;-78
2024/03/08 17:55:40;;;;;;;3.38;2.42;;;;;;;;;;6319498;28;20278;-79
2024/03/08 17:58:41;;;;;;;3.95;2.90;;;;;;;;;;6321458;28;20353;-80
2024/03/08 18:01:43;;;;;;;3.80;2.73;;;;;;;;;;6302464;28;20028;-79